Airfield :
LOGIN :

Register | Disclaimer

   EN    FR    IT 

 










Legend :    VFR   Marginal VFR   IFR   Intensive IFR   Very Intensive IFR
Visi :
Ceiling :
>= 8 km
>= 3000ft
5 to 8 km
1000 to 3000 ft
1500m to 5 km
500 to 1000 ft
800 to 1500m
200 to 500 ft
< 800m
< 200 ft
Symbols :   Thunderstorms  Fog  Heavy snow  Heavy precipitations  Wind > 20 kt
SIGMETs :     Misc.  Thunderstorms  Icing  Turbulence  Mountain Waves  Volcanic Ashes






- Airport Elevation : 614 ft
- IATA code : CRL


EBCI - Charleroi

CURRENT METAR :
  • 252050Z 25006KT 9999 FEW028 10/08 Q1014 NOSIG

EXPIRED METARs :
  • 252020Z 26003KT 230V290 CAVOK 10/08 Q1014 NOSIG
  • 251950Z 25005KT CAVOK 10/09 Q1014 NOSIG
  • 251920Z 27003KT 230V310 CAVOK 11/09 Q1014 NOSIG
  • 251850Z 25005KT CAVOK 11/08 Q1014 NOSIG
  • 251820Z 26003KT 230V300 CAVOK 11/08 Q1014 NOSIG

TAF TAF EBCI
Valid from the 25 at 18:00 until the 27 at 00:00 UTC


251720Z 2518/2624 24005KT 9999 FEW040
BECMG 2523/2602 22010KT
TEMPO 2607/2617 21015G25KT 4000 RA SHRA SCT007 BKN012TCU
TEMPO 2619/2622 32015G25KT 4500 SHRA BKN014 SCT020CB



MET'MAP, your aeronautical weather chart ! - Copyright ORBIFLY December 2007 - Disclaimer

ORBIFLY MET'MAP TEAM :

Programming & Development : Alexandra Zaïnal
Original concept : Baudouin d'Aumeries
Technical & hardware support : Manuel Goepfert
Assistance : Marc-Olivier Méhu




SOURCES & CREDITS :

   NOAA